• Join FlightAware (Why Join?)
  • Login
  • US Flag 
12:40PM EST


 

Airport Tracker/Info


-or-


 

Live Flight TrackerFlight Track Log ✈ SWA407 ✈ 05-Apr-2013 ✈ KBNA - KTPA

Flight Track Log - Related Links

Times and Time Zones

All times are in EDT time to prevent confusion due to time zone crossing. See the SWA407 flight status page for this flight to view local times or setup timezone preferences in your user account.

Time Position Orientation Groundspeed Altitude Reporting Facility
EDT Latitude Longitude Course Direction KTS MPH feet Rate Location/Type
01:15PM 36.1333 -86.6500 39° Northeast 153 176 1,700  Level Nashville TRACON
01:15PM 36.1500 -86.6333 39° Northeast 180 207 2,800 2,400 Climbing Nashville TRACON
01:16PM 36.1667 -86.5667 73° East 252 290 5,300 3,180 Climbing Nashville TRACON
01:17PM 36.1000 -86.5333 158° South 315 362 8,900 3,600 Climbing Nashville TRACON
01:18PM 36.0283 -86.5250 175° South 312 359 11,500 3,120 Climbing Memphis Center
01:19PM 35.9381 -86.5036 169° South 340 391 14,300 1,740 Climbing Memphis Center
01:20PM 35.8353 -86.4828 171° South 356 410 15,000 1,380 Climbing Memphis Center
01:21PM 35.7303 -86.4622 171° South 374 430 17,100 2,100 Climbing Memphis Center
01:22PM 35.6317 -86.4414 170° South 394 453 19,300 2,340 Climbing Memphis Center
01:23PM 35.5100 -86.4164 171° South 418 481 21,800 2,100 Climbing Memphis Center
01:25PM 35.2631 -86.3231 163° South 446 513 25,800 1,800 Climbing Atlanta Center
01:26PM 35.1453 -86.2614 157° South 464 534 27,400 1,680 Climbing Atlanta Center
01:27PM 35.0214 -86.1919 155° Southeast 474 545 29,200 1,680 Climbing Atlanta Center
01:28PM 34.8931 -86.1356 160° South 484 557 30,800 1,800 Climbing Atlanta Center
01:29PM 34.7583 -86.0767 160° South 499 574 32,800 1,920 Climbing Atlanta Center
01:30PM 34.6256 -86.0203 161° South 504 580 34,700 1,920 Climbing Atlanta Center
01:31PM 34.4950 -85.9669 161° South 504 580 36,700 1,140 Climbing Atlanta Center
01:32PM 34.3728 -85.9136 160° South 491 565 37,000 120 Climbing Atlanta Center
01:33PM 34.2503 -85.8608 160° South 476 548 37,000  Level Atlanta Center
01:34PM 34.1281 -85.8106 161° South 471 542 37,000  Level Atlanta Center
01:35PM 34.0181 -85.7706 163° South 460 529 37,000  Level Atlanta Center
01:36PM 33.8956 -85.7206 161° South 460 529 37,000  Level Atlanta Center
01:37PM 33.7708 -85.6681 161° South 465 535 37,000  Level Atlanta Center
01:38PM 33.6506 -85.6183 161° South 465 535 37,000  Level Atlanta Center
01:39PM 33.5281 -85.5664 161° South 460 529 37,000  Level Atlanta Center
01:40PM 33.4056 -85.5169 161° South 460 529 37,000  Level Atlanta Center
01:41PM 33.2850 -85.4678 161° South 460 529 37,000  Level Atlanta Center
01:42PM 33.1625 -85.4186 161° South 460 529 37,000  Level Atlanta Center
01:43PM 33.0294 -85.3544 158° South 460 529 37,000  Level Atlanta Center
01:44PM 32.9089 -85.3056 161° South 469 540 37,000  Level Atlanta Center
01:45PM 32.7822 -85.2544 161° South 469 540 37,000  Level Atlanta Center
01:46PM 32.6617 -85.2033 160° South 469 540 37,000  Level Atlanta Center
01:47PM 32.5369 -85.1550 162° South 457 526 37,000  Level Atlanta Center
01:48PM 32.4203 -85.1067 161° South 462 532 37,000  Level Atlanta Center
01:49PM 32.2975 -85.0586 162° South 462 532 37,000  Level Atlanta Center
01:50PM 32.1769 -85.0156 163° South 457 526 37,000  Level Atlanta Center
01:51PM 32.0583 -84.9678 161° South 457 526 37,000  Level Atlanta Center
01:52PM 31.9397 -84.9200 161° South 457 526 37,000  Level Atlanta Center
01:53PM 31.8211 -84.8722 161° South 457 526 37,000  Level Atlanta Center
01:55PM 31.5639 -84.7700 161° South 451 519 37,000  Level Jacksonville Center
01:56PM 31.4475 -84.7239 161° South 446 513 37,000  Level Jacksonville Center
01:57PM 31.3294 -84.6753 161° South 441 507 37,000  Level Jacksonville Center
01:58PM 31.2150 -84.6319 162° South 441 507 37,000  Level Jacksonville Center
01:59PM 31.0967 -84.5861 162° South 441 507 37,000  Level Jacksonville Center
02:00PM 30.9825 -84.5403 161° South 441 507 37,000  Level Jacksonville Center
02:01PM 30.8619 -84.4947 162° South 441 507 37,000  Level Jacksonville Center
02:02PM 30.7456 -84.4467 160° South 441 507 37,000  Level Jacksonville Center
02:03PM 30.6314 -84.4064 163° South 441 507 37,000  Level Jacksonville Center
02:04PM 30.5211 -84.3514 157° South 441 507 37,000  Level Jacksonville Center
02:05PM 30.4114 -84.2825 152° Southeast 441 507 37,000  Level Jacksonville Center
02:06PM 30.3097 -84.2111 149° Southeast 435 501 37,000  Level Jacksonville Center
02:07PM 30.1958 -84.1375 151° Southeast 429 494 37,000  Level Jacksonville Center
02:08PM 30.0919 -84.0714 151° Southeast 429 494 37,000  Level Jacksonville Center
02:09PM 29.9881 -84.0028 150° Southeast 429 494 37,000  Level Jacksonville Center
02:10PM 29.8844 -83.9369 151° Southeast 429 494 37,000  Level Jacksonville Center
02:11PM 29.7825 -83.8714 151° Southeast 429 494 37,000  Level Jacksonville Center
02:12PM 29.6828 -83.8081 151° Southeast 424 488 37,000 -240 Level Jacksonville Center
02:13PM 29.5853 -83.7428 150° Southeast 412 474 36,600 -1,620 Descending Jacksonville Center
02:14PM 29.4853 -83.6800 151° Southeast 412 474 33,800 -2,880 Descending Jacksonville Center
02:15PM 29.3875 -83.6147 150° Southeast 412 474 30,900 -2,700 Descending Jacksonville Center
02:16PM 29.2897 -83.5544 152° Southeast 412 474 28,500 -1,980 Descending Jacksonville Center
02:17PM 29.1919 -83.4919 151° Southeast 412 474 27,000 -1,200 Descending Jacksonville Center
02:18PM 29.1006 -83.4344 151° Southeast 396 456 26,100 -960 Descending Jacksonville Center
02:19PM 29.0089 -83.3744 150° Southeast 385 443 25,100 -1,020 Descending Jacksonville Center
02:20PM 28.9131 -83.3147 151° Southeast 385 443 24,100 -1,260 Descending Jacksonville Center
02:21PM 28.8194 -83.2553 151° Southeast 385 443 22,600 -1,920 Descending Jacksonville Center
02:22PM 28.7236 -83.1933 150° Southeast 391 450 20,300 -2,280 Descending Jacksonville Center
02:24PM 28.5833 -83.1167 154° Southeast 374 430 17,000 -2,220 Descending Tampa TRACON
02:25PM 28.5000 -83.0500 145° Southeast 366 421 14,800 -2,160 Descending Tampa TRACON
02:26PM 28.4167 -83.0000 152° Southeast 359 413 12,700 -1,860 Descending Tampa TRACON
02:27PM 28.3333 -82.9500 152° Southeast 348 400 11,100 -1,380 Descending Tampa TRACON
02:28PM 28.2500 -82.9000 152° Southeast 320 368 10,000 -1,200 Descending Tampa TRACON
02:29PM 28.1833 -82.8500 147° Southeast 302 348 8,700 -1,380 Descending Tampa TRACON
02:30PM 28.1333 -82.7667 124° Southeast 296 341 7,300 -1,380 Descending Tampa TRACON
02:31PM 28.0833 -82.7000 130° Southeast 293 337 6,000 -1,200 Descending Tampa TRACON
02:32PM 28.0167 -82.6333 139° Southeast 280 322 5,000 -540 Descending Tampa TRACON
02:33PM 27.9667 -82.6167 164° South 219 252 5,000 -720 Level Tampa TRACON
02:34PM 27.9000 -82.6167 180° South 210 242 3,600 -1,200 Descending Tampa TRACON
02:35PM 27.8500 -82.6167 180° South 211 243 2,600 -600 Descending Tampa TRACON
02:36PM 27.8500 -82.5667 90° East 185 213 2,400 -660 Descending Tampa TRACON
02:37PM 27.9000 -82.5500 16° North 153 176 1,300 -900 Descending Tampa TRACON
02:38PM 27.9333 -82.5500 360° North 136 157 600 -720 Descending Tampa TRACON
02:40PM 27.9755 -82.5332 352° North  Level Estimated
02:47PM 27.9755 -82.5332 161° South  Level Estimated
02:48PM 27.9755 -82.5332 161° South  Level Estimated